sensor_id;sensor_type;location;lat;lon;timestamp;P1;P2;P0
73517;PMS5003;61766;60.318;25.044;2023-12-20T00:00:53;0;0;
73517;PMS5003;61766;60.318;25.044;2023-12-20T00:03:18;0;0;
73517;PMS5003;61766;60.318;25.044;2023-12-20T00:05:43;1;0;
73517;PMS5003;61766;60.318;25.044;2023-12-20T00:08:08;0;0;
73517;PMS5003;61766;60.318;25.044;2023-12-20T00:10:33;0;0;
73517;PMS5003;61766;60.318;25.044;2023-12-20T00:12:59;1;1;
73517;PMS5003;61766;60.318;25.044;2023-12-20T00:15:24;0;0;
73517;PMS5003;61766;60.318;25.044;2023-12-20T00:17:49;0;0;
73517;PMS5003;61766;60.318;25.044;2023-12-20T00:20:15;1;1;
73517;PMS5003;61766;60.318;25.044;2023-12-20T00:22:40;0;0;
73517;PMS5003;61766;60.318;25.044;2023-12-20T00:25:06;0;0;
73517;PMS5003;61766;60.318;25.044;2023-12-20T00:27:30;0;0;
73517;PMS5003;61766;60.318;25.044;2023-12-20T00:29:56;1;0;
73517;PMS5003;61766;60.318;25.044;2023-12-20T00:32:21;0;0;
73517;PMS5003;61766;60.318;25.044;2023-12-20T00:34:46;0;0;
73517;PMS5003;61766;60.318;25.044;2023-12-20T00:37:12;0;0;
73517;PMS5003;61766;60.318;25.044;2023-12-20T00:39:36;0;0;
73517;PMS5003;61766;60.318;25.044;2023-12-20T00:42:02;0;0;
73517;PMS5003;61766;60.318;25.044;2023-12-20T00:44:27;1;0;
73517;PMS5003;61766;60.318;25.044;2023-12-20T00:46:52;0;0;
73517;PMS5003;61766;60.318;25.044;2023-12-20T00:49:18;0;0;
73517;PMS5003;61766;60.318;25.044;2023-12-20T00:51:43;0;0;
73517;PMS5003;61766;60.318;25.044;2023-12-20T00:54:08;0;0;
73517;PMS5003;61766;60.318;25.044;2023-12-20T00:56:33;1;0;
73517;PMS5003;61766;60.318;25.044;2023-12-20T00:58:58;1;0;
73517;PMS5003;61766;60.318;25.044;2023-12-20T01:01:23;0;0;
73517;PMS5003;61766;60.318;25.044;2023-12-20T01:03:49;0;0;
73517;PMS5003;61766;60.318;25.044;2023-12-20T01:06:14;0;0;
73517;PMS5003;61766;60.318;25.044;2023-12-20T01:08:39;0;0;
73517;PMS5003;61766;60.318;25.044;2023-12-20T01:11:04;0;0;
73517;PMS5003;61766;60.318;25.044;2023-12-20T01:13:29;0;0;
73517;PMS5003;61766;60.318;25.044;2023-12-20T01:15:55;2;1;
73517;PMS5003;61766;60.318;25.044;2023-12-20T01:18:20;0;0;
73517;PMS5003;61766;60.318;25.044;2023-12-20T01:20:45;1;0;
73517;PMS5003;61766;60.318;25.044;2023-12-20T01:23:10;0;0;
73517;PMS5003;61766;60.318;25.044;2023-12-20T01:25:35;0;0;
73517;PMS5003;61766;60.318;25.044;2023-12-20T01:28:01;0;0;
73517;PMS5003;61766;60.318;25.044;2023-12-20T01:30:26;0;0;
73517;PMS5003;61766;60.318;25.044;2023-12-20T01:32:51;0;0;
73517;PMS5003;61766;60.318;25.044;2023-12-20T01:35:17;1;0;
73517;PMS5003;61766;60.318;25.044;2023-12-20T01:37:41;0;0;
73517;PMS5003;61766;60.318;25.044;2023-12-20T01:40:07;0;0;
73517;PMS5003;61766;60.318;25.044;2023-12-20T01:42:32;0;0;
73517;PMS5003;61766;60.318;25.044;2023-12-20T01:44:57;1;0;
73517;PMS5003;61766;60.318;25.044;2023-12-20T01:47:22;0;0;
73517;PMS5003;61766;60.318;25.044;2023-12-20T01:49:48;0;0;
73517;PMS5003;61766;60.318;25.044;2023-12-20T01:52:13;1;0;
73517;PMS5003;61766;60.318;25.044;2023-12-20T01:54:38;0;0;
73517;PMS5003;61766;60.318;25.044;2023-12-20T01:57:04;1;0;
73517;PMS5003;61766;60.318;25.044;2023-12-20T01:59:28;0;0;
73517;PMS5003;61766;60.318;25.044;2023-12-20T02:01:54;0;0;
73517;PMS5003;61766;60.318;25.044;2023-12-20T02:04:19;0;0;
73517;PMS5003;61766;60.318;25.044;2023-12-20T02:06:44;0;0;
73517;PMS5003;61766;60.318;25.044;2023-12-20T02:09:09;0;0;
73517;PMS5003;61766;60.318;25.044;2023-12-20T02:11:34;1;0;
73517;PMS5003;61766;60.318;25.044;2023-12-20T02:14:00;2;2;
73517;PMS5003;61766;60.318;25.044;2023-12-20T02:16:25;0;0;
73517;PMS5003;61766;60.318;25.044;2023-12-20T02:18:50;1;1;
73517;PMS5003;61766;60.318;25.044;2023-12-20T02:21:15;0;0;
73517;PMS5003;61766;60.318;25.044;2023-12-20T02:23:40;0;0;
73517;PMS5003;61766;60.318;25.044;2023-12-20T02:26:06;0;0;
73517;PMS5003;61766;60.318;25.044;2023-12-20T02:28:31;2;2;
73517;PMS5003;61766;60.318;25.044;2023-12-20T02:30:57;0;0;
73517;PMS5003;61766;60.318;25.044;2023-12-20T02:33:22;0;0;
73517;PMS5003;61766;60.318;25.044;2023-12-20T02:35:47;1;0;
73517;PMS5003;61766;60.318;25.044;2023-12-20T02:38:12;0;0;
73517;PMS5003;61766;60.318;25.044;2023-12-20T02:40:37;0;0;
73517;PMS5003;61766;60.318;25.044;2023-12-20T02:43:03;0;0;
73517;PMS5003;61766;60.318;25.044;2023-12-20T02:45:28;0;0;
73517;PMS5003;61766;60.318;25.044;2023-12-20T02:47:53;0;0;
73517;PMS5003;61766;60.318;25.044;2023-12-20T02:50:18;1;1;
73517;PMS5003;61766;60.318;25.044;2023-12-20T02:52:44;0;0;
73517;PMS5003;61766;60.318;25.044;2023-12-20T02:55:09;1;1;
73517;PMS5003;61766;60.318;25.044;2023-12-20T02:57:34;0;0;
73517;PMS5003;61766;60.318;25.044;2023-12-20T02:59:59;0;0;
73517;PMS5003;61766;60.318;25.044;2023-12-20T03:02:25;2;2;
73517;PMS5003;61766;60.318;25.044;2023-12-20T03:04:50;1;0;
73517;PMS5003;61766;60.318;25.044;2023-12-20T03:07:15;1;0;
73517;PMS5003;61766;60.318;25.044;2023-12-20T03:09:41;0;0;
73517;PMS5003;61766;60.318;25.044;2023-12-20T03:12:06;0;0;
73517;PMS5003;61766;60.318;25.044;2023-12-20T03:14:31;1;0;
73517;PMS5003;61766;60.318;25.044;2023-12-20T03:16:56;1;0;
73517;PMS5003;61766;60.318;25.044;2023-12-20T03:19:21;0;0;
73517;PMS5003;61766;60.318;25.044;2023-12-20T03:21:47;2;1;
73517;PMS5003;61766;60.318;25.044;2023-12-20T03:24:12;2;0;
73517;PMS5003;61766;60.318;25.044;2023-12-20T03:26:37;1;0;
73517;PMS5003;61766;60.318;25.044;2023-12-20T03:29:02;0;0;
73517;PMS5003;61766;60.318;25.044;2023-12-20T03:31:28;2;0;
73517;PMS5003;61766;60.318;25.044;2023-12-20T03:33:53;0;0;
73517;PMS5003;61766;60.318;25.044;2023-12-20T03:36:18;0;0;
73517;PMS5003;61766;60.318;25.044;2023-12-20T03:38:43;0;0;
73517;PMS5003;61766;60.318;25.044;2023-12-20T03:41:08;1;0;
73517;PMS5003;61766;60.318;25.044;2023-12-20T03:43:34;0;0;
73517;PMS5003;61766;60.318;25.044;2023-12-20T03:45:59;0;0;
73517;PMS5003;61766;60.318;25.044;2023-12-20T03:48:25;0;0;
73517;PMS5003;61766;60.318;25.044;2023-12-20T03:50:50;0;0;
73517;PMS5003;61766;60.318;25.044;2023-12-20T03:53:15;1;1;
73517;PMS5003;61766;60.318;25.044;2023-12-20T03:55:40;0;0;
73517;PMS5003;61766;60.318;25.044;2023-12-20T03:58:06;0;0;
73517;PMS5003;61766;60.318;25.044;2023-12-20T04:00:31;0;0;
73517;PMS5003;61766;60.318;25.044;2023-12-20T04:02:56;0;0;
73517;PMS5003;61766;60.318;25.044;2023-12-20T04:05:21;1;0;
73517;PMS5003;61766;60.318;25.044;2023-12-20T04:07:46;4;0;
73517;PMS5003;61766;60.318;25.044;2023-12-20T04:10:12;0;0;
73517;PMS5003;61766;60.318;25.044;2023-12-20T04:12:37;1;1;
73517;PMS5003;61766;60.318;25.044;2023-12-20T04:15:02;0;0;
73517;PMS5003;61766;60.318;25.044;2023-12-20T04:17:27;0;0;
73517;PMS5003;61766;60.318;25.044;2023-12-20T04:19:52;0;0;
73517;PMS5003;61766;60.318;25.044;2023-12-20T04:22:18;1;0;
73517;PMS5003;61766;60.318;25.044;2023-12-20T04:24:43;0;0;
73517;PMS5003;61766;60.318;25.044;2023-12-20T04:27:08;1;1;
73517;PMS5003;61766;60.318;25.044;2023-12-20T04:29:33;0;0;
73517;PMS5003;61766;60.318;25.044;2023-12-20T04:31:58;0;0;
73517;PMS5003;61766;60.318;25.044;2023-12-20T04:34:24;1;1;
73517;PMS5003;61766;60.318;25.044;2023-12-20T04:36:49;0;0;
73517;PMS5003;61766;60.318;25.044;2023-12-20T04:39:14;0;0;
73517;PMS5003;61766;60.318;25.044;2023-12-20T04:41:39;1;1;
73517;PMS5003;61766;60.318;25.044;2023-12-20T04:44:05;0;0;
73517;PMS5003;61766;60.318;25.044;2023-12-20T04:46:30;1;0;
73517;PMS5003;61766;60.318;25.044;2023-12-20T04:48:55;0;0;
73517;PMS5003;61766;60.318;25.044;2023-12-20T04:51:20;1;1;
73517;PMS5003;61766;60.318;25.044;2023-12-20T04:53:45;1;1;
73517;PMS5003;61766;60.318;25.044;2023-12-20T04:56:11;0;0;
73517;PMS5003;61766;60.318;25.044;2023-12-20T04:58:36;1;0;
73517;PMS5003;61766;60.318;25.044;2023-12-20T05:01:01;0;0;
73517;PMS5003;61766;60.318;25.044;2023-12-20T05:03:26;1;0;
73517;PMS5003;61766;60.318;25.044;2023-12-20T05:05:51;0;0;
73517;PMS5003;61766;60.318;25.044;2023-12-20T05:08:17;1;0;
73517;PMS5003;61766;60.318;25.044;2023-12-20T05:10:42;0;0;
73517;PMS5003;61766;60.318;25.044;2023-12-20T05:13:08;1;1;
73517;PMS5003;61766;60.318;25.044;2023-12-20T05:15:33;0;0;
73517;PMS5003;61766;60.318;25.044;2023-12-20T05:17:58;0;0;
73517;PMS5003;61766;60.318;25.044;2023-12-20T05:20:23;0;0;
73517;PMS5003;61766;60.318;25.044;2023-12-20T05:22:48;2;0;
73517;PMS5003;61766;60.318;25.044;2023-12-20T05:25:14;0;0;
73517;PMS5003;61766;60.318;25.044;2023-12-20T05:27:39;0;0;
73517;PMS5003;61766;60.318;25.044;2023-12-20T05:30:04;1;1;
73517;PMS5003;61766;60.318;25.044;2023-12-20T05:32:30;1;0;
73517;PMS5003;61766;60.318;25.044;2023-12-20T05:34:55;2;1;
73517;PMS5003;61766;60.318;25.044;2023-12-20T05:37:20;0;0;
73517;PMS5003;61766;60.318;25.044;2023-12-20T05:39:45;1;0;
73517;PMS5003;61766;60.318;25.044;2023-12-20T05:42:11;1;0;
73517;PMS5003;61766;60.318;25.044;2023-12-20T05:44:36;1;0;
73517;PMS5003;61766;60.318;25.044;2023-12-20T05:47:01;0;0;
73517;PMS5003;61766;60.318;25.044;2023-12-20T05:49:26;0;0;
73517;PMS5003;61766;60.318;25.044;2023-12-20T05:51:52;2;0;
73517;PMS5003;61766;60.318;25.044;2023-12-20T05:54:17;0;0;
73517;PMS5003;61766;60.318;25.044;2023-12-20T05:56:42;2;1;
73517;PMS5003;61766;60.318;25.044;2023-12-20T05:59:08;0;0;
73517;PMS5003;61766;60.318;25.044;2023-12-20T06:01:33;1;0;
73517;PMS5003;61766;60.318;25.044;2023-12-20T06:03:58;0;0;
73517;PMS5003;61766;60.318;25.044;2023-12-20T06:06:24;4;4;
73517;PMS5003;61766;60.318;25.044;2023-12-20T06:08:49;1;1;
73517;PMS5003;61766;60.318;25.044;2023-12-20T06:11:14;2;0;
73517;PMS5003;61766;60.318;25.044;2023-12-20T06:13:39;0;0;
73517;PMS5003;61766;60.318;25.044;2023-12-20T06:16:05;0;0;
73517;PMS5003;61766;60.318;25.044;2023-12-20T06:18:30;0;0;
73517;PMS5003;61766;60.318;25.044;2023-12-20T06:20:55;0;0;
73517;PMS5003;61766;60.318;25.044;2023-12-20T06:23:20;1;1;
73517;PMS5003;61766;60.318;25.044;2023-12-20T06:25:45;0;0;
73517;PMS5003;61766;60.318;25.044;2023-12-20T06:28:11;0;0;
73517;PMS5003;61766;60.318;25.044;2023-12-20T06:30:36;1;1;
73517;PMS5003;61766;60.318;25.044;2023-12-20T06:33:01;1;0;
73517;PMS5003;61766;60.318;25.044;2023-12-20T06:35:27;0;0;
73517;PMS5003;61766;60.318;25.044;2023-12-20T06:37:52;2;1;
73517;PMS5003;61766;60.318;25.044;2023-12-20T06:40:17;0;0;
73517;PMS5003;61766;60.318;25.044;2023-12-20T06:42:43;1;1;
73517;PMS5003;61766;60.318;25.044;2023-12-20T06:45:08;0;0;
73517;PMS5003;61766;60.318;25.044;2023-12-20T06:47:33;2;1;
73517;PMS5003;61766;60.318;25.044;2023-12-20T06:49:58;0;0;
73517;PMS5003;61766;60.318;25.044;2023-12-20T06:52:23;1;1;
73517;PMS5003;61766;60.318;25.044;2023-12-20T06:54:48;0;0;
73517;PMS5003;61766;60.318;25.044;2023-12-20T06:57:13;0;0;
73517;PMS5003;61766;60.318;25.044;2023-12-20T06:59:39;0;0;
73517;PMS5003;61766;60.318;25.044;2023-12-20T07:02:05;2;2;
73517;PMS5003;61766;60.318;25.044;2023-12-20T07:04:30;4;4;
73517;PMS5003;61766;60.318;25.044;2023-12-20T07:06:55;1;1;
73517;PMS5003;61766;60.318;25.044;2023-12-20T07:09:20;1;0;
73517;PMS5003;61766;60.318;25.044;2023-12-20T07:11:46;1;1;
73517;PMS5003;61766;60.318;25.044;2023-12-20T07:14:11;1;0;
73517;PMS5003;61766;60.318;25.044;2023-12-20T07:16:36;1;1;
73517;PMS5003;61766;60.318;25.044;2023-12-20T07:19:01;1;1;
73517;PMS5003;61766;60.318;25.044;2023-12-20T07:21:27;2;1;
73517;PMS5003;61766;60.318;25.044;2023-12-20T07:23:52;1;1;
73517;PMS5003;61766;60.318;25.044;2023-12-20T07:26:18;0;0;
73517;PMS5003;61766;60.318;25.044;2023-12-20T07:28:43;0;0;
73517;PMS5003;61766;60.318;25.044;2023-12-20T07:31:08;0;0;
73517;PMS5003;61766;60.318;25.044;2023-12-20T07:33:33;0;0;
73517;PMS5003;61766;60.318;25.044;2023-12-20T07:35:59;0;0;
73517;PMS5003;61766;60.318;25.044;2023-12-20T07:38:24;0;0;
73517;PMS5003;61766;60.318;25.044;2023-12-20T07:40:49;0;0;
73517;PMS5003;61766;60.318;25.044;2023-12-20T07:43:14;2;0;
73517;PMS5003;61766;60.318;25.044;2023-12-20T07:45:39;1;0;
73517;PMS5003;61766;60.318;25.044;2023-12-20T07:48:06;0;0;
73517;PMS5003;61766;60.318;25.044;2023-12-20T07:50:30;0;0;
73517;PMS5003;61766;60.318;25.044;2023-12-20T07:52:55;1;1;
73517;PMS5003;61766;60.318;25.044;2023-12-20T07:55:20;0;0;
73517;PMS5003;61766;60.318;25.044;2023-12-20T07:57:45;0;0;
73517;PMS5003;61766;60.318;25.044;2023-12-20T08:00:11;1;0;
73517;PMS5003;61766;60.318;25.044;2023-12-20T08:02:36;1;1;
73517;PMS5003;61766;60.318;25.044;2023-12-20T08:05:01;0;0;
73517;PMS5003;61766;60.318;25.044;2023-12-20T08:07:26;0;0;
73517;PMS5003;61766;60.318;25.044;2023-12-20T08:09:51;0;0;
73517;PMS5003;61766;60.318;25.044;2023-12-20T08:12:16;0;0;
73517;PMS5003;61766;60.318;25.044;2023-12-20T08:14:42;0;0;
73517;PMS5003;61766;60.318;25.044;2023-12-20T08:17:07;0;0;
73517;PMS5003;61766;60.318;25.044;2023-12-20T08:19:32;1;1;
73517;PMS5003;61766;60.318;25.044;2023-12-20T08:21:57;1;0;
73517;PMS5003;61766;60.318;25.044;2023-12-20T08:24:22;2;2;
73517;PMS5003;61766;60.318;25.044;2023-12-20T08:26:48;0;0;
73517;PMS5003;61766;60.318;25.044;2023-12-20T08:29:13;3;3;
73517;PMS5003;61766;60.318;25.044;2023-12-20T08:31:38;0;0;
73517;PMS5003;61766;60.318;25.044;2023-12-20T08:34:03;0;0;
73517;PMS5003;61766;60.318;25.044;2023-12-20T08:36:28;1;1;
73517;PMS5003;61766;60.318;25.044;2023-12-20T08:38:54;0;0;
73517;PMS5003;61766;60.318;25.044;2023-12-20T08:41:19;1;1;
73517;PMS5003;61766;60.318;25.044;2023-12-20T08:43:45;1;1;
73517;PMS5003;61766;60.318;25.044;2023-12-20T08:46:10;1;0;
73517;PMS5003;61766;60.318;25.044;2023-12-20T08:48:35;1;1;
73517;PMS5003;61766;60.318;25.044;2023-12-20T08:51:00;1;0;
73517;PMS5003;61766;60.318;25.044;2023-12-20T08:53:25;1;1;
73517;PMS5003;61766;60.318;25.044;2023-12-20T08:55:51;0;0;
73517;PMS5003;61766;60.318;25.044;2023-12-20T08:58:16;1;1;
73517;PMS5003;61766;60.318;25.044;2023-12-20T09:00:41;1;1;
73517;PMS5003;61766;60.318;25.044;2023-12-20T09:03:06;0;0;
73517;PMS5003;61766;60.318;25.044;2023-12-20T09:05:31;1;0;
73517;PMS5003;61766;60.318;25.044;2023-12-20T09:07:57;1;1;
73517;PMS5003;61766;60.318;25.044;2023-12-20T09:10:22;1;1;
73517;PMS5003;61766;60.318;25.044;2023-12-20T09:12:47;1;0;
73517;PMS5003;61766;60.318;25.044;2023-12-20T09:15:12;1;1;
73517;PMS5003;61766;60.318;25.044;2023-12-20T09:17:38;0;0;
73517;PMS5003;61766;60.318;25.044;2023-12-20T09:20:03;1;0;
73517;PMS5003;61766;60.318;25.044;2023-12-20T09:22:28;0;0;
73517;PMS5003;61766;60.318;25.044;2023-12-20T09:24:54;4;1;
73517;PMS5003;61766;60.318;25.044;2023-12-20T09:27:20;0;0;
73517;PMS5003;61766;60.318;25.044;2023-12-20T09:29:44;1;0;
73517;PMS5003;61766;60.318;25.044;2023-12-20T09:32:09;0;0;
73517;PMS5003;61766;60.318;25.044;2023-12-20T09:34:35;0;0;
73517;PMS5003;61766;60.318;25.044;2023-12-20T09:37:00;2;1;
73517;PMS5003;61766;60.318;25.044;2023-12-20T09:39:25;3;1;
73517;PMS5003;61766;60.318;25.044;2023-12-20T09:41:54;0;0;
73517;PMS5003;61766;60.318;25.044;2023-12-20T09:44:16;1;1;
73517;PMS5003;61766;60.318;25.044;2023-12-20T09:46:42;4;1;
73517;PMS5003;61766;60.318;25.044;2023-12-20T09:49:06;2;1;
73517;PMS5003;61766;60.318;25.044;2023-12-20T09:51:33;1;1;
73517;PMS5003;61766;60.318;25.044;2023-12-20T09:53:57;1;0;
73517;PMS5003;61766;60.318;25.044;2023-12-20T09:56:23;2;1;
73517;PMS5003;61766;60.318;25.044;2023-12-20T09:58:47;2;2;
73517;PMS5003;61766;60.318;25.044;2023-12-20T10:01:12;1;1;
73517;PMS5003;61766;60.318;25.044;2023-12-20T10:03:38;1;0;
73517;PMS5003;61766;60.318;25.044;2023-12-20T10:06:03;1;1;
73517;PMS5003;61766;60.318;25.044;2023-12-20T10:08:28;1;1;
73517;PMS5003;61766;60.318;25.044;2023-12-20T10:10:53;0;0;
73517;PMS5003;61766;60.318;25.044;2023-12-20T10:13:18;2;1;
73517;PMS5003;61766;60.318;25.044;2023-12-20T10:15:44;1;1;
73517;PMS5003;61766;60.318;25.044;2023-12-20T10:18:09;1;1;
73517;PMS5003;61766;60.318;25.044;2023-12-20T10:20:34;2;0;
73517;PMS5003;61766;60.318;25.044;2023-12-20T10:22:59;0;0;
73517;PMS5003;61766;60.318;25.044;2023-12-20T10:25:24;2;1;
73517;PMS5003;61766;60.318;25.044;2023-12-20T10:27:50;1;0;
73517;PMS5003;61766;60.318;25.044;2023-12-20T10:30:15;3;3;
73517;PMS5003;61766;60.318;25.044;2023-12-20T10:32:41;2;2;
73517;PMS5003;61766;60.318;25.044;2023-12-20T10:35:06;0;0;
73517;PMS5003;61766;60.318;25.044;2023-12-20T10:37:32;0;0;
73517;PMS5003;61766;60.318;25.044;2023-12-20T10:39:57;0;0;
73517;PMS5003;61766;60.318;25.044;2023-12-20T10:42:22;3;3;
73517;PMS5003;61766;60.318;25.044;2023-12-20T10:44:48;1;1;
73517;PMS5003;61766;60.318;25.044;2023-12-20T10:47:13;1;0;
73517;PMS5003;61766;60.318;25.044;2023-12-20T10:49:38;1;1;
73517;PMS5003;61766;60.318;25.044;2023-12-20T10:52:04;0;0;
73517;PMS5003;61766;60.318;25.044;2023-12-20T10:54:28;2;2;
73517;PMS5003;61766;60.318;25.044;2023-12-20T10:56:54;1;1;
73517;PMS5003;61766;60.318;25.044;2023-12-20T10:59:19;1;0;
73517;PMS5003;61766;60.318;25.044;2023-12-20T11:01:44;0;0;
73517;PMS5003;61766;60.318;25.044;2023-12-20T11:04:10;1;0;
73517;PMS5003;61766;60.318;25.044;2023-12-20T11:06:36;1;0;
73517;PMS5003;61766;60.318;25.044;2023-12-20T11:09:03;2;1;
73517;PMS5003;61766;60.318;25.044;2023-12-20T11:11:27;0;0;
73517;PMS5003;61766;60.318;25.044;2023-12-20T11:13:53;0;0;
73517;PMS5003;61766;60.318;25.044;2023-12-20T11:16:15;1;1;
73517;PMS5003;61766;60.318;25.044;2023-12-20T11:18:41;1;0;
73517;PMS5003;61766;60.318;25.044;2023-12-20T11:21:06;2;1;
73517;PMS5003;61766;60.318;25.044;2023-12-20T11:23:32;0;0;
73517;PMS5003;61766;60.318;25.044;2023-12-20T11:25:56;0;0;
73517;PMS5003;61766;60.318;25.044;2023-12-20T11:28:22;1;1;
73517;PMS5003;61766;60.318;25.044;2023-12-20T11:30:49;1;1;
73517;PMS5003;61766;60.318;25.044;2023-12-20T11:33:12;1;0;
73517;PMS5003;61766;60.318;25.044;2023-12-20T11:35:37;0;0;
73517;PMS5003;61766;60.318;25.044;2023-12-20T11:38:02;2;1;
73517;PMS5003;61766;60.318;25.044;2023-12-20T11:40:27;0;0;
73517;PMS5003;61766;60.318;25.044;2023-12-20T11:42:53;2;0;
73517;PMS5003;61766;60.318;25.044;2023-12-20T11:45:18;1;1;
73517;PMS5003;61766;60.318;25.044;2023-12-20T11:47:44;1;1;
73517;PMS5003;61766;60.318;25.044;2023-12-20T11:50:08;1;1;
73517;PMS5003;61766;60.318;25.044;2023-12-20T11:52:34;2;1;
73517;PMS5003;61766;60.318;25.044;2023-12-20T11:55:00;1;1;
73517;PMS5003;61766;60.318;25.044;2023-12-20T11:57:24;2;1;
73517;PMS5003;61766;60.318;25.044;2023-12-20T11:59:49;5;4;
73517;PMS5003;61766;60.318;25.044;2023-12-20T12:02:14;5;4;
73517;PMS5003;61766;60.318;25.044;2023-12-20T12:04:41;8;8;
73517;PMS5003;61766;60.318;25.044;2023-12-20T12:07:06;9;8;
73517;PMS5003;61766;60.318;25.044;2023-12-20T12:09:31;9;8;
73517;PMS5003;61766;60.318;25.044;2023-12-20T12:11:56;3;3;
73517;PMS5003;61766;60.318;25.044;2023-12-20T12:14:21;10;10;
73517;PMS5003;61766;60.318;25.044;2023-12-20T12:16:47;6;6;
73517;PMS5003;61766;60.318;25.044;2023-12-20T12:21:37;3;1;
73517;PMS5003;61766;60.318;25.044;2023-12-20T12:24:06;5;4;
73517;PMS5003;61766;60.318;25.044;2023-12-20T12:26:30;3;3;
73517;PMS5003;61766;60.318;25.044;2023-12-20T12:28:53;3;3;
73517;PMS5003;61766;60.318;25.044;2023-12-20T12:31:18;2;2;
73517;PMS5003;61766;60.318;25.044;2023-12-20T12:33:43;2;2;
73517;PMS5003;61766;60.318;25.044;2023-12-20T12:36:09;1;1;
73517;PMS5003;61766;60.318;25.044;2023-12-20T12:38:34;1;1;
73517;PMS5003;61766;60.318;25.044;2023-12-20T12:40:59;3;3;
73517;PMS5003;61766;60.318;25.044;2023-12-20T12:43:24;3;3;
73517;PMS5003;61766;60.318;25.044;2023-12-20T12:45:50;2;1;
73517;PMS5003;61766;60.318;25.044;2023-12-20T12:48:15;1;1;
73517;PMS5003;61766;60.318;25.044;2023-12-20T12:50:41;1;1;
73517;PMS5003;61766;60.318;25.044;2023-12-20T12:53:06;1;1;
73517;PMS5003;61766;60.318;25.044;2023-12-20T12:55:32;8;8;
73517;PMS5003;61766;60.318;25.044;2023-12-20T12:57:57;1;1;
73517;PMS5003;61766;60.318;25.044;2023-12-20T13:00:22;1;1;
73517;PMS5003;61766;60.318;25.044;2023-12-20T13:02:47;1;1;
73517;PMS5003;61766;60.318;25.044;2023-12-20T13:05:12;2;2;
73517;PMS5003;61766;60.318;25.044;2023-12-20T13:07:38;1;1;
73517;PMS5003;61766;60.318;25.044;2023-12-20T13:10:03;2;1;
73517;PMS5003;61766;60.318;25.044;2023-12-20T13:12:28;2;2;
73517;PMS5003;61766;60.318;25.044;2023-12-20T13:14:53;2;2;
73517;PMS5003;61766;60.318;25.044;2023-12-20T13:17:18;1;1;
73517;PMS5003;61766;60.318;25.044;2023-12-20T13:19:44;1;1;
73517;PMS5003;61766;60.318;25.044;2023-12-20T13:22:09;1;1;
73517;PMS5003;61766;60.318;25.044;2023-12-20T13:24:34;1;1;
73517;PMS5003;61766;60.318;25.044;2023-12-20T13:26:59;2;2;
73517;PMS5003;61766;60.318;25.044;2023-12-20T13:29:24;4;3;
73517;PMS5003;61766;60.318;25.044;2023-12-20T13:31:50;2;1;
73517;PMS5003;61766;60.318;25.044;2023-12-20T13:34:15;1;1;
73517;PMS5003;61766;60.318;25.044;2023-12-20T13:36:40;4;4;
73517;PMS5003;61766;60.318;25.044;2023-12-20T13:39:05;3;2;
73517;PMS5003;61766;60.318;25.044;2023-12-20T13:41:31;3;3;
73517;PMS5003;61766;60.318;25.044;2023-12-20T13:43:56;6;6;
73517;PMS5003;61766;60.318;25.044;2023-12-20T13:46:22;1;1;
73517;PMS5003;61766;60.318;25.044;2023-12-20T13:48:47;4;3;
73517;PMS5003;61766;60.318;25.044;2023-12-20T13:51:12;2;2;
73517;PMS5003;61766;60.318;25.044;2023-12-20T13:53:37;2;2;
73517;PMS5003;61766;60.318;25.044;2023-12-20T13:56:03;3;3;
73517;PMS5003;61766;60.318;25.044;2023-12-20T13:58:28;3;2;
73517;PMS5003;61766;60.318;25.044;2023-12-20T14:00:54;1;1;
73517;PMS5003;61766;60.318;25.044;2023-12-20T14:03:19;6;6;
73517;PMS5003;61766;60.318;25.044;2023-12-20T14:05:44;4;4;
73517;PMS5003;61766;60.318;25.044;2023-12-20T14:08:09;4;4;
73517;PMS5003;61766;60.318;25.044;2023-12-20T14:10:35;5;5;
73517;PMS5003;61766;60.318;25.044;2023-12-20T14:13:00;6;6;
73517;PMS5003;61766;60.318;25.044;2023-12-20T14:15:26;9;9;
73517;PMS5003;61766;60.318;25.044;2023-12-20T14:17:51;10;10;
73517;PMS5003;61766;60.318;25.044;2023-12-20T14:20:16;6;6;
73517;PMS5003;61766;60.318;25.044;2023-12-20T14:22:42;3;3;
73517;PMS5003;61766;60.318;25.044;2023-12-20T14:25:07;5;4;
73517;PMS5003;61766;60.318;25.044;2023-12-20T14:27:32;7;5;
73517;PMS5003;61766;60.318;25.044;2023-12-20T14:29:57;4;3;
73517;PMS5003;61766;60.318;25.044;2023-12-20T14:32:23;4;3;
73517;PMS5003;61766;60.318;25.044;2023-12-20T14:34:48;4;3;
73517;PMS5003;61766;60.318;25.044;2023-12-20T14:37:13;4;4;
73517;PMS5003;61766;60.318;25.044;2023-12-20T14:39:38;2;2;
73517;PMS5003;61766;60.318;25.044;2023-12-20T14:42:03;2;2;
73517;PMS5003;61766;60.318;25.044;2023-12-20T14:44:29;5;5;
73517;PMS5003;61766;60.318;25.044;2023-12-20T14:46:54;5;4;
73517;PMS5003;61766;60.318;25.044;2023-12-20T14:49:19;4;4;
73517;PMS5003;61766;60.318;25.044;2023-12-20T14:51:44;4;4;
73517;PMS5003;61766;60.318;25.044;2023-12-20T14:54:09;7;5;
73517;PMS5003;61766;60.318;25.044;2023-12-20T14:56:35;3;3;
73517;PMS5003;61766;60.318;25.044;2023-12-20T14:59:00;4;4;
73517;PMS5003;61766;60.318;25.044;2023-12-20T15:01:25;3;3;
73517;PMS5003;61766;60.318;25.044;2023-12-20T15:03:50;5;3;
73517;PMS5003;61766;60.318;25.044;2023-12-20T15:06:16;2;2;
73517;PMS5003;61766;60.318;25.044;2023-12-20T15:08:41;4;3;
73517;PMS5003;61766;60.318;25.044;2023-12-20T15:11:06;2;2;
73517;PMS5003;61766;60.318;25.044;2023-12-20T15:13:31;3;3;
73517;PMS5003;61766;60.318;25.044;2023-12-20T15:15:57;4;3;
73517;PMS5003;61766;60.318;25.044;2023-12-20T15:18:22;6;4;
73517;PMS5003;61766;60.318;25.044;2023-12-20T15:20:48;4;4;
73517;PMS5003;61766;60.318;25.044;2023-12-20T15:23:13;6;5;
73517;PMS5003;61766;60.318;25.044;2023-12-20T15:25:38;5;3;
73517;PMS5003;61766;60.318;25.044;2023-12-20T15:28:03;4;4;
73517;PMS5003;61766;60.318;25.044;2023-12-20T15:30:28;3;3;
73517;PMS5003;61766;60.318;25.044;2023-12-20T15:32:54;3;3;
73517;PMS5003;61766;60.318;25.044;2023-12-20T15:35:19;5;4;
73517;PMS5003;61766;60.318;25.044;2023-12-20T15:37:45;5;4;
73517;PMS5003;61766;60.318;25.044;2023-12-20T15:40:11;5;5;
73517;PMS5003;61766;60.318;25.044;2023-12-20T15:42:35;6;4;
73517;PMS5003;61766;60.318;25.044;2023-12-20T15:45:01;4;4;
73517;PMS5003;61766;60.318;25.044;2023-12-20T15:47:26;6;5;
73517;PMS5003;61766;60.318;25.044;2023-12-20T15:49:52;5;5;
73517;PMS5003;61766;60.318;25.044;2023-12-20T15:52:17;5;5;
73517;PMS5003;61766;60.318;25.044;2023-12-20T15:54:42;8;8;
73517;PMS5003;61766;60.318;25.044;2023-12-20T15:57:10;8;8;
73517;PMS5003;61766;60.318;25.044;2023-12-20T15:59:33;10;6;
73517;PMS5003;61766;60.318;25.044;2023-12-20T16:01:58;8;8;
73517;PMS5003;61766;60.318;25.044;2023-12-20T16:04:23;12;11;
73517;PMS5003;61766;60.318;25.044;2023-12-20T16:06:48;13;12;
73517;PMS5003;61766;60.318;25.044;2023-12-20T16:09:15;11;9;
73517;PMS5003;61766;60.318;25.044;2023-12-20T16:11:39;16;13;
73517;PMS5003;61766;60.318;25.044;2023-12-20T16:14:05;12;12;
73517;PMS5003;61766;60.318;25.044;2023-12-20T16:16:30;13;12;
73517;PMS5003;61766;60.318;25.044;2023-12-20T16:18:55;13;13;
73517;PMS5003;61766;60.318;25.044;2023-12-20T16:21:20;14;14;